sensor_id;sensor_type;location;lat;lon;timestamp;temperature;humidity
5705;DHT22;2877;48.238;11.160;2024-03-02T00:00:15;5.50;99.90
5705;DHT22;2877;48.238;11.160;2024-03-02T00:02:45;5.50;99.90
5705;DHT22;2877;48.238;11.160;2024-03-02T00:05:15;5.50;99.90
5705;DHT22;2877;48.238;11.160;2024-03-02T00:07:45;5.50;99.90
5705;DHT22;2877;48.238;11.160;2024-03-02T00:10:14;5.60;99.90
5705;DHT22;2877;48.238;11.160;2024-03-02T00:12:41;5.60;99.90
5705;DHT22;2877;48.238;11.160;2024-03-02T00:15:41;5.60;99.90
5705;DHT22;2877;48.238;11.160;2024-03-02T00:18:14;5.50;99.90
5705;DHT22;2877;48.238;11.160;2024-03-02T00:20:40;5.40;99.90
5705;DHT22;2877;48.238;11.160;2024-03-02T00:23:07;5.40;99.90
5705;DHT22;2877;48.238;11.160;2024-03-02T00:28:25;5.40;99.90
5705;DHT22;2877;48.238;11.160;2024-03-02T00:31:04;5.30;99.90
5705;DHT22;2877;48.238;11.160;2024-03-02T00:33:35;5.30;99.90
5705;DHT22;2877;48.238;11.160;2024-03-02T00:36:05;5.20;99.90
5705;DHT22;2877;48.238;11.160;2024-03-02T00:38:32;5.20;99.90
5705;DHT22;2877;48.238;11.160;2024-03-02T00:40:59;5.20;99.90
5705;DHT22;2877;48.238;11.160;2024-03-02T00:43:44;5.10;99.90
5705;DHT22;2877;48.238;11.160;2024-03-02T00:46:11;5.10;99.90
5705;DHT22;2877;48.238;11.160;2024-03-02T00:48:37;5.10;99.90
5705;DHT22;2877;48.238;11.160;2024-03-02T00:51:04;5.10;99.90
5705;DHT22;2877;48.238;11.160;2024-03-02T00:53:30;5.00;99.90
5705;DHT22;2877;48.238;11.160;2024-03-02T00:55:56;5.00;99.90
5705;DHT22;2877;48.238;11.160;2024-03-02T00:58:22;5.00;99.90
5705;DHT22;2877;48.238;11.160;2024-03-02T01:00:47;5.00;99.90
5705;DHT22;2877;48.238;11.160;2024-03-02T01:03:13;5.10;99.90
5705;DHT22;2877;48.238;11.160;2024-03-02T01:05:45;5.10;99.90
5705;DHT22;2877;48.238;11.160;2024-03-02T01:08:11;5.10;99.90
5705;DHT22;2877;48.238;11.160;2024-03-02T01:10:36;5.10;99.90
5705;DHT22;2877;48.238;11.160;2024-03-02T01:13:02;5.00;99.90
5705;DHT22;2877;48.238;11.160;2024-03-02T01:15:28;5.00;99.90
5705;DHT22;2877;48.238;11.160;2024-03-02T01:17:53;5.00;99.90
5705;DHT22;2877;48.238;11.160;2024-03-02T01:20:19;5.00;99.90
5705;DHT22;2877;48.238;11.160;2024-03-02T01:22:44;5.00;99.90
5705;DHT22;2877;48.238;11.160;2024-03-02T01:25:10;4.90;99.90
5705;DHT22;2877;48.238;11.160;2024-03-02T01:27:35;4.90;99.90
5705;DHT22;2877;48.238;11.160;2024-03-02T01:30:01;4.90;99.90
5705;DHT22;2877;48.238;11.160;2024-03-02T01:32:27;4.90;99.90
5705;DHT22;2877;48.238;11.160;2024-03-02T01:34:52;4.90;99.90
5705;DHT22;2877;48.238;11.160;2024-03-02T01:37:18;4.90;99.90
5705;DHT22;2877;48.238;11.160;2024-03-02T01:39:43;4.90;99.90
5705;DHT22;2877;48.238;11.160;2024-03-02T01:42:09;4.90;99.90
5705;DHT22;2877;48.238;11.160;2024-03-02T01:44:36;4.90;99.90
5705;DHT22;2877;48.238;11.160;2024-03-02T01:47:01;4.90;99.90
5705;DHT22;2877;48.238;11.160;2024-03-02T01:49:27;4.90;99.90
5705;DHT22;2877;48.238;11.160;2024-03-02T01:51:53;4.90;99.90
5705;DHT22;2877;48.238;11.160;2024-03-02T01:54:18;4.90;99.90
5705;DHT22;2877;48.238;11.160;2024-03-02T01:56:44;4.90;99.90
5705;DHT22;2877;48.238;11.160;2024-03-02T01:59:11;4.90;99.90
5705;DHT22;2877;48.238;11.160;2024-03-02T02:01:38;4.90;99.90
5705;DHT22;2877;48.238;11.160;2024-03-02T02:04:03;4.90;99.90
5705;DHT22;2877;48.238;11.160;2024-03-02T02:06:29;4.90;99.90
5705;DHT22;2877;48.238;11.160;2024-03-02T02:08:55;4.90;99.90
5705;DHT22;2877;48.238;11.160;2024-03-02T02:11:20;4.90;99.90
5705;DHT22;2877;48.238;11.160;2024-03-02T02:13:46;4.90;99.90
5705;DHT22;2877;48.238;11.160;2024-03-02T02:16:11;5.00;99.90
5705;DHT22;2877;48.238;11.160;2024-03-02T02:18:37;5.00;99.90
5705;DHT22;2877;48.238;11.160;2024-03-02T02:21:03;4.90;99.90
5705;DHT22;2877;48.238;11.160;2024-03-02T02:23:29;4.90;99.90
5705;DHT22;2877;48.238;11.160;2024-03-02T02:25:54;4.90;99.90
5705;DHT22;2877;48.238;11.160;2024-03-02T02:28:20;5.00;99.90
5705;DHT22;2877;48.238;11.160;2024-03-02T02:30:45;4.90;99.90
5705;DHT22;2877;48.238;11.160;2024-03-02T02:33:11;4.90;99.90
5705;DHT22;2877;48.238;11.160;2024-03-02T02:35:36;4.90;99.90
5705;DHT22;2877;48.238;11.160;2024-03-02T02:38:03;4.90;99.90
5705;DHT22;2877;48.238;11.160;2024-03-02T02:40:29;5.00;99.90
5705;DHT22;2877;48.238;11.160;2024-03-02T02:42:58;5.00;99.90
5705;DHT22;2877;48.238;11.160;2024-03-02T02:45:24;5.00;99.90
5705;DHT22;2877;48.238;11.160;2024-03-02T02:47:50;5.00;99.90
5705;DHT22;2877;48.238;11.160;2024-03-02T02:50:15;5.00;99.90
5705;DHT22;2877;48.238;11.160;2024-03-02T02:52:42;4.90;99.90
5705;DHT22;2877;48.238;11.160;2024-03-02T02:55:09;4.90;99.90
5705;DHT22;2877;48.238;11.160;2024-03-02T02:57:36;5.00;99.90
5705;DHT22;2877;48.238;11.160;2024-03-02T03:00:12;5.00;99.90
5705;DHT22;2877;48.238;11.160;2024-03-02T03:02:42;5.00;99.90
5705;DHT22;2877;48.238;11.160;2024-03-02T03:05:09;4.90;99.90
5705;DHT22;2877;48.238;11.160;2024-03-02T03:07:35;4.90;99.90
5705;DHT22;2877;48.238;11.160;2024-03-02T03:10:02;4.90;99.90
5705;DHT22;2877;48.238;11.160;2024-03-02T03:12:28;4.80;99.90
5705;DHT22;2877;48.238;11.160;2024-03-02T03:14:54;4.80;99.90
5705;DHT22;2877;48.238;11.160;2024-03-02T03:17:21;4.80;99.90
5705;DHT22;2877;48.238;11.160;2024-03-02T03:19:47;4.80;99.90
5705;DHT22;2877;48.238;11.160;2024-03-02T03:22:12;4.80;99.90
5705;DHT22;2877;48.238;11.160;2024-03-02T03:24:38;4.80;99.90
5705;DHT22;2877;48.238;11.160;2024-03-02T03:27:04;4.80;99.90
5705;DHT22;2877;48.238;11.160;2024-03-02T03:29:29;4.80;99.90
5705;DHT22;2877;48.238;11.160;2024-03-02T03:31:55;4.80;99.90
5705;DHT22;2877;48.238;11.160;2024-03-02T03:34:20;4.80;99.90
5705;DHT22;2877;48.238;11.160;2024-03-02T03:36:46;4.80;99.90
5705;DHT22;2877;48.238;11.160;2024-03-02T03:39:11;4.80;99.90
5705;DHT22;2877;48.238;11.160;2024-03-02T03:41:37;4.80;99.90
5705;DHT22;2877;48.238;11.160;2024-03-02T03:44:02;4.80;99.90
5705;DHT22;2877;48.238;11.160;2024-03-02T03:46:29;4.80;99.90
5705;DHT22;2877;48.238;11.160;2024-03-02T03:48:54;4.90;99.90
5705;DHT22;2877;48.238;11.160;2024-03-02T03:51:21;4.90;99.90
5705;DHT22;2877;48.238;11.160;2024-03-02T03:53:48;4.90;99.90
5705;DHT22;2877;48.238;11.160;2024-03-02T03:56:14;4.90;99.90
5705;DHT22;2877;48.238;11.160;2024-03-02T03:58:39;4.90;99.90
5705;DHT22;2877;48.238;11.160;2024-03-02T04:01:05;4.90;99.90
5705;DHT22;2877;48.238;11.160;2024-03-02T04:03:30;4.90;99.90
5705;DHT22;2877;48.238;11.160;2024-03-02T04:05:56;5.00;99.90
5705;DHT22;2877;48.238;11.160;2024-03-02T04:08:21;4.90;99.90
5705;DHT22;2877;48.238;11.160;2024-03-02T04:10:47;4.90;99.90
5705;DHT22;2877;48.238;11.160;2024-03-02T04:13:13;4.90;99.90
5705;DHT22;2877;48.238;11.160;2024-03-02T04:15:38;4.90;99.90
5705;DHT22;2877;48.238;11.160;2024-03-02T04:18:06;4.80;99.90
5705;DHT22;2877;48.238;11.160;2024-03-02T04:20:31;4.80;99.90
5705;DHT22;2877;48.238;11.160;2024-03-02T04:22:57;4.80;99.90
5705;DHT22;2877;48.238;11.160;2024-03-02T04:25:22;4.80;99.90
5705;DHT22;2877;48.238;11.160;2024-03-02T04:27:48;4.80;99.90
5705;DHT22;2877;48.238;11.160;2024-03-02T04:30:14;4.80;99.90
5705;DHT22;2877;48.238;11.160;2024-03-02T04:32:40;4.80;99.90
5705;DHT22;2877;48.238;11.160;2024-03-02T04:35:06;4.80;99.90
5705;DHT22;2877;48.238;11.160;2024-03-02T04:37:34;4.80;99.90
5705;DHT22;2877;48.238;11.160;2024-03-02T04:40:00;4.80;99.90
5705;DHT22;2877;48.238;11.160;2024-03-02T04:42:25;4.80;99.90
5705;DHT22;2877;48.238;11.160;2024-03-02T04:44:51;4.80;99.90
5705;DHT22;2877;48.238;11.160;2024-03-02T04:47:16;4.80;99.90
5705;DHT22;2877;48.238;11.160;2024-03-02T04:49:42;4.80;99.90
5705;DHT22;2877;48.238;11.160;2024-03-02T04:52:08;4.80;99.90
5705;DHT22;2877;48.238;11.160;2024-03-02T04:54:34;4.80;99.90
5705;DHT22;2877;48.238;11.160;2024-03-02T04:57:19;4.80;99.90
5705;DHT22;2877;48.238;11.160;2024-03-02T04:59:45;4.80;99.90
5705;DHT22;2877;48.238;11.160;2024-03-02T05:02:10;4.80;99.90
5705;DHT22;2877;48.238;11.160;2024-03-02T05:04:36;4.80;99.90
5705;DHT22;2877;48.238;11.160;2024-03-02T05:07:01;4.80;99.90
5705;DHT22;2877;48.238;11.160;2024-03-02T05:09:27;4.80;99.90
5705;DHT22;2877;48.238;11.160;2024-03-02T05:11:52;4.80;99.90
5705;DHT22;2877;48.238;11.160;2024-03-02T05:14:45;4.80;99.90
5705;DHT22;2877;48.238;11.160;2024-03-02T05:17:11;4.80;99.90
5705;DHT22;2877;48.238;11.160;2024-03-02T05:19:36;4.80;99.90
5705;DHT22;2877;48.238;11.160;2024-03-02T05:22:02;4.80;99.90
5705;DHT22;2877;48.238;11.160;2024-03-02T05:24:28;4.80;99.90
5705;DHT22;2877;48.238;11.160;2024-03-02T05:26:54;4.70;99.90
5705;DHT22;2877;48.238;11.160;2024-03-02T05:29:19;4.70;99.90
5705;DHT22;2877;48.238;11.160;2024-03-02T05:31:45;4.70;99.90
5705;DHT22;2877;48.238;11.160;2024-03-02T05:34:11;4.70;99.90
5705;DHT22;2877;48.238;11.160;2024-03-02T05:36:36;4.70;99.90
5705;DHT22;2877;48.238;11.160;2024-03-02T05:39:06;4.70;99.90
5705;DHT22;2877;48.238;11.160;2024-03-02T05:41:35;4.70;99.90
5705;DHT22;2877;48.238;11.160;2024-03-02T05:44:00;4.70;99.90
5705;DHT22;2877;48.238;11.160;2024-03-02T05:46:26;4.60;99.90
5705;DHT22;2877;48.238;11.160;2024-03-02T05:48:52;4.50;99.90
5705;DHT22;2877;48.238;11.160;2024-03-02T05:51:17;4.50;99.90
5705;DHT22;2877;48.238;11.160;2024-03-02T05:53:43;4.50;99.90
5705;DHT22;2877;48.238;11.160;2024-03-02T05:56:08;4.50;99.90
5705;DHT22;2877;48.238;11.160;2024-03-02T05:58:34;4.50;99.90
5705;DHT22;2877;48.238;11.160;2024-03-02T06:01:16;4.50;99.90
5705;DHT22;2877;48.238;11.160;2024-03-02T06:03:43;4.40;99.90
5705;DHT22;2877;48.238;11.160;2024-03-02T06:06:09;4.30;99.90
5705;DHT22;2877;48.238;11.160;2024-03-02T06:08:34;4.20;99.90
5705;DHT22;2877;48.238;11.160;2024-03-02T06:11:00;4.20;99.90
5705;DHT22;2877;48.238;11.160;2024-03-02T06:13:26;4.10;99.90
5705;DHT22;2877;48.238;11.160;2024-03-02T06:15:52;4.10;99.90
5705;DHT22;2877;48.238;11.160;2024-03-02T06:18:17;4.10;99.90
5705;DHT22;2877;48.238;11.160;2024-03-02T06:20:43;4.00;99.90
5705;DHT22;2877;48.238;11.160;2024-03-02T06:23:08;4.00;99.90
5705;DHT22;2877;48.238;11.160;2024-03-02T06:25:34;4.00;99.90
5705;DHT22;2877;48.238;11.160;2024-03-02T06:28:00;4.00;99.90
5705;DHT22;2877;48.238;11.160;2024-03-02T06:30:25;4.00;99.90
5705;DHT22;2877;48.238;11.160;2024-03-02T06:32:51;3.90;99.90
5705;DHT22;2877;48.238;11.160;2024-03-02T06:35:16;3.90;99.90
5705;DHT22;2877;48.238;11.160;2024-03-02T06:37:42;3.90;99.90
5705;DHT22;2877;48.238;11.160;2024-03-02T06:40:08;3.90;99.90
5705;DHT22;2877;48.238;11.160;2024-03-02T06:42:34;3.90;99.90
5705;DHT22;2877;48.238;11.160;2024-03-02T06:45:01;3.90;99.90
5705;DHT22;2877;48.238;11.160;2024-03-02T06:47:27;3.90;99.90
5705;DHT22;2877;48.238;11.160;2024-03-02T06:49:52;3.90;99.90
5705;DHT22;2877;48.238;11.160;2024-03-02T06:52:18;3.90;99.90
5705;DHT22;2877;48.238;11.160;2024-03-02T06:54:44;3.90;99.90
5705;DHT22;2877;48.238;11.160;2024-03-02T06:57:09;3.90;99.90
5705;DHT22;2877;48.238;11.160;2024-03-02T06:59:35;4.00;99.90
5705;DHT22;2877;48.238;11.160;2024-03-02T07:02:00;4.00;99.90
5705;DHT22;2877;48.238;11.160;2024-03-02T07:04:27;4.10;99.90
5705;DHT22;2877;48.238;11.160;2024-03-02T07:06:52;4.30;99.90
5705;DHT22;2877;48.238;11.160;2024-03-02T07:09:18;4.40;99.90
5705;DHT22;2877;48.238;11.160;2024-03-02T07:11:48;4.50;99.90
5705;DHT22;2877;48.238;11.160;2024-03-02T07:14:13;4.70;99.90
5705;DHT22;2877;48.238;11.160;2024-03-02T07:16:39;4.90;99.90
5705;DHT22;2877;48.238;11.160;2024-03-02T07:19:06;5.10;99.90
5705;DHT22;2877;48.238;11.160;2024-03-02T07:21:32;5.30;99.90
5705;DHT22;2877;48.238;11.160;2024-03-02T07:23:58;5.40;99.90
5705;DHT22;2877;48.238;11.160;2024-03-02T07:26:24;5.50;99.90
5705;DHT22;2877;48.238;11.160;2024-03-02T07:28:51;5.60;99.90
5705;DHT22;2877;48.238;11.160;2024-03-02T07:31:16;5.70;99.90
5705;DHT22;2877;48.238;11.160;2024-03-02T07:33:45;5.70;99.90
5705;DHT22;2877;48.238;11.160;2024-03-02T07:36:12;5.70;99.90
5705;DHT22;2877;48.238;11.160;2024-03-02T07:38:38;5.80;99.90
5705;DHT22;2877;48.238;11.160;2024-03-02T07:41:03;5.90;99.90
5705;DHT22;2877;48.238;11.160;2024-03-02T07:43:30;5.90;99.90
5705;DHT22;2877;48.238;11.160;2024-03-02T07:45:56;6.00;99.90
5705;DHT22;2877;48.238;11.160;2024-03-02T07:48:22;6.10;99.90
5705;DHT22;2877;48.238;11.160;2024-03-02T07:50:48;6.20;99.90
5705;DHT22;2877;48.238;11.160;2024-03-02T07:53:13;6.30;99.90
5705;DHT22;2877;48.238;11.160;2024-03-02T07:55:39;6.40;99.90
5705;DHT22;2877;48.238;11.160;2024-03-02T07:58:06;6.50;99.90
5705;DHT22;2877;48.238;11.160;2024-03-02T08:00:32;6.60;99.90
5705;DHT22;2877;48.238;11.160;2024-03-02T08:02:58;6.70;99.90
5705;DHT22;2877;48.238;11.160;2024-03-02T08:05:24;6.80;99.90
5705;DHT22;2877;48.238;11.160;2024-03-02T08:07:49;6.90;99.90
5705;DHT22;2877;48.238;11.160;2024-03-02T08:10:18;7.00;99.90
5705;DHT22;2877;48.238;11.160;2024-03-02T08:12:44;7.10;99.90
5705;DHT22;2877;48.238;11.160;2024-03-02T08:15:10;7.20;99.90
5705;DHT22;2877;48.238;11.160;2024-03-02T08:17:35;7.30;99.90
5705;DHT22;2877;48.238;11.160;2024-03-02T08:20:01;7.40;99.90
5705;DHT22;2877;48.238;11.160;2024-03-02T08:22:27;7.50;99.90
5705;DHT22;2877;48.238;11.160;2024-03-02T08:24:53;7.70;99.90
5705;DHT22;2877;48.238;11.160;2024-03-02T08:27:19;7.80;99.90
5705;DHT22;2877;48.238;11.160;2024-03-02T08:29:45;8.00;99.90
5705;DHT22;2877;48.238;11.160;2024-03-02T08:32:10;8.10;99.90
5705;DHT22;2877;48.238;11.160;2024-03-02T08:34:36;8.30;99.90
5705;DHT22;2877;48.238;11.160;2024-03-02T08:37:02;8.50;99.90
5705;DHT22;2877;48.238;11.160;2024-03-02T08:39:28;8.60;99.90
5705;DHT22;2877;48.238;11.160;2024-03-02T08:41:53;8.70;99.90
5705;DHT22;2877;48.238;11.160;2024-03-02T08:44:19;8.70;99.90
5705;DHT22;2877;48.238;11.160;2024-03-02T08:46:45;8.80;99.90
5705;DHT22;2877;48.238;11.160;2024-03-02T08:49:11;8.90;99.90
5705;DHT22;2877;48.238;11.160;2024-03-02T08:51:37;9.00;99.90
5705;DHT22;2877;48.238;11.160;2024-03-02T08:54:02;9.00;99.90
5705;DHT22;2877;48.238;11.160;2024-03-02T08:56:30;9.00;99.90
5705;DHT22;2877;48.238;11.160;2024-03-02T08:58:56;9.10;99.90
5705;DHT22;2877;48.238;11.160;2024-03-02T09:01:21;9.30;99.90
5705;DHT22;2877;48.238;11.160;2024-03-02T09:03:47;9.50;99.90
5705;DHT22;2877;48.238;11.160;2024-03-02T09:06:14;9.60;99.90
5705;DHT22;2877;48.238;11.160;2024-03-02T09:08:42;9.70;99.90
5705;DHT22;2877;48.238;11.160;2024-03-02T09:11:08;9.90;99.90
5705;DHT22;2877;48.238;11.160;2024-03-02T09:13:34;10.00;99.90
5705;DHT22;2877;48.238;11.160;2024-03-02T09:16:00;10.20;99.90
5705;DHT22;2877;48.238;11.160;2024-03-02T09:18:26;10.30;99.90
5705;DHT22;2877;48.238;11.160;2024-03-02T09:20:51;10.40;99.90
5705;DHT22;2877;48.238;11.160;2024-03-02T09:23:17;10.50;99.90
5705;DHT22;2877;48.238;11.160;2024-03-02T09:25:42;10.60;99.90
5705;DHT22;2877;48.238;11.160;2024-03-02T09:28:08;10.60;99.90
5705;DHT22;2877;48.238;11.160;2024-03-02T09:30:33;10.70;99.90
5705;DHT22;2877;48.238;11.160;2024-03-02T09:32:59;10.70;99.90
5705;DHT22;2877;48.238;11.160;2024-03-02T09:35:25;10.70;99.90
5705;DHT22;2877;48.238;11.160;2024-03-02T09:37:50;10.70;99.90
5705;DHT22;2877;48.238;11.160;2024-03-02T09:40:16;10.50;99.90
5705;DHT22;2877;48.238;11.160;2024-03-02T09:42:42;10.40;99.90
5705;DHT22;2877;48.238;11.160;2024-03-02T09:45:09;10.40;99.90
5705;DHT22;2877;48.238;11.160;2024-03-02T09:47:35;10.40;99.90
5705;DHT22;2877;48.238;11.160;2024-03-02T09:50:00;10.50;99.90
5705;DHT22;2877;48.238;11.160;2024-03-02T09:52:26;10.50;99.90
5705;DHT22;2877;48.238;11.160;2024-03-02T09:54:52;10.60;99.90
5705;DHT22;2877;48.238;11.160;2024-03-02T09:57:18;10.60;99.90
5705;DHT22;2877;48.238;11.160;2024-03-02T09:59:44;10.70;99.90
5705;DHT22;2877;48.238;11.160;2024-03-02T10:02:10;10.70;99.90
5705;DHT22;2877;48.238;11.160;2024-03-02T10:04:36;10.70;99.90
5705;DHT22;2877;48.238;11.160;2024-03-02T10:07:15;10.70;99.90
5705;DHT22;2877;48.238;11.160;2024-03-02T10:09:42;10.90;99.90
5705;DHT22;2877;48.238;11.160;2024-03-02T10:12:10;10.90;99.90
5705;DHT22;2877;48.238;11.160;2024-03-02T10:14:37;10.90;99.90
5705;DHT22;2877;48.238;11.160;2024-03-02T10:17:07;11.00;99.90
5705;DHT22;2877;48.238;11.160;2024-03-02T10:19:33;11.20;99.90
5705;DHT22;2877;48.238;11.160;2024-03-02T10:22:07;11.20;99.90
5705;DHT22;2877;48.238;11.160;2024-03-02T10:24:39;11.30;99.90
5705;DHT22;2877;48.238;11.160;2024-03-02T10:27:18;11.50;99.90
5705;DHT22;2877;48.238;11.160;2024-03-02T10:29:47;11.60;99.90
5705;DHT22;2877;48.238;11.160;2024-03-02T10:32:13;11.80;99.90
5705;DHT22;2877;48.238;11.160;2024-03-02T10:34:45;11.80;99.90
5705;DHT22;2877;48.238;11.160;2024-03-02T10:37:12;11.90;99.90
5705;DHT22;2877;48.238;11.160;2024-03-02T10:39:39;12.00;99.90
5705;DHT22;2877;48.238;11.160;2024-03-02T10:42:08;12.00;99.90
5705;DHT22;2877;48.238;11.160;2024-03-02T10:44:34;12.00;99.90
5705;DHT22;2877;48.238;11.160;2024-03-02T10:47:01;12.10;99.90
5705;DHT22;2877;48.238;11.160;2024-03-02T10:49:31;11.90;99.90
5705;DHT22;2877;48.238;11.160;2024-03-02T10:51:58;11.70;99.90
5705;DHT22;2877;48.238;11.160;2024-03-02T10:54:24;11.60;99.90
5705;DHT22;2877;48.238;11.160;2024-03-02T10:57:01;11.60;99.90
5705;DHT22;2877;48.238;11.160;2024-03-02T10:59:35;11.60;99.90
5705;DHT22;2877;48.238;11.160;2024-03-02T11:02:03;11.50;99.90
5705;DHT22;2877;48.238;11.160;2024-03-02T11:04:30;11.40;99.90
5705;DHT22;2877;48.238;11.160;2024-03-02T11:07:07;11.40;99.90
5705;DHT22;2877;48.238;11.160;2024-03-02T11:09:34;11.30;99.90
5705;DHT22;2877;48.238;11.160;2024-03-02T11:12:09;11.40;99.90
5705;DHT22;2877;48.238;11.160;2024-03-02T11:14:40;11.40;99.90
5705;DHT22;2877;48.238;11.160;2024-03-02T11:17:08;11.40;99.90
5705;DHT22;2877;48.238;11.160;2024-03-02T11:19:34;11.50;99.90
5705;DHT22;2877;48.238;11.160;2024-03-02T11:22:02;11.60;99.90
5705;DHT22;2877;48.238;11.160;2024-03-02T11:24:29;11.60;99.90
5705;DHT22;2877;48.238;11.160;2024-03-02T11:26:59;11.50;99.90
5705;DHT22;2877;48.238;11.160;2024-03-02T11:32:14;11.60;99.90
5705;DHT22;2877;48.238;11.160;2024-03-02T11:34:45;11.60;99.90
5705;DHT22;2877;48.238;11.160;2024-03-02T11:37:18;11.60;99.90
5705;DHT22;2877;48.238;11.160;2024-03-02T11:39:46;11.80;99.90
5705;DHT22;2877;48.238;11.160;2024-03-02T11:42:13;11.90;99.90
5705;DHT22;2877;48.238;11.160;2024-03-02T11:44:45;11.90;99.90
5705;DHT22;2877;48.238;11.160;2024-03-02T11:47:13;12.00;99.90
5705;DHT22;2877;48.238;11.160;2024-03-02T11:52:07;12.10;99.90
5705;DHT22;2877;48.238;11.160;2024-03-02T11:54:33;12.00;99.90
5705;DHT22;2877;48.238;11.160;2024-03-02T11:57:02;12.00;99.90
5705;DHT22;2877;48.238;11.160;2024-03-02T11:59:31;11.90;99.90
5705;DHT22;2877;48.238;11.160;2024-03-02T12:01:58;12.00;99.90
5705;DHT22;2877;48.238;11.160;2024-03-02T12:04:24;12.10;99.90
5705;DHT22;2877;48.238;11.160;2024-03-02T12:09:22;11.90;99.90
5705;DHT22;2877;48.238;11.160;2024-03-02T12:11:47;12.00;99.90
5705;DHT22;2877;48.238;11.160;2024-03-02T12:14:13;12.10;99.90
5705;DHT22;2877;48.238;11.160;2024-03-02T12:16:39;12.30;99.90
5705;DHT22;2877;48.238;11.160;2024-03-02T12:19:08;12.30;99.90
5705;DHT22;2877;48.238;11.160;2024-03-02T12:21:34;12.40;99.90
5705;DHT22;2877;48.238;11.160;2024-03-02T12:24:00;12.60;99.90
5705;DHT22;2877;48.238;11.160;2024-03-02T12:26:26;12.60;99.90
5705;DHT22;2877;48.238;11.160;2024-03-02T12:28:52;12.60;99.90
5705;DHT22;2877;48.238;11.160;2024-03-02T12:31:17;12.60;99.90
5705;DHT22;2877;48.238;11.160;2024-03-02T12:33:43;12.60;99.90
5705;DHT22;2877;48.238;11.160;2024-03-02T12:36:13;12.60;99.90
5705;DHT22;2877;48.238;11.160;2024-03-02T12:38:43;12.80;99.90
5705;DHT22;2877;48.238;11.160;2024-03-02T12:41:09;12.90;99.90
5705;DHT22;2877;48.238;11.160;2024-03-02T12:43:35;13.00;99.90
5705;DHT22;2877;48.238;11.160;2024-03-02T12:46:00;13.10;99.90
5705;DHT22;2877;48.238;11.160;2024-03-02T12:48:26;13.30;99.90
5705;DHT22;2877;48.238;11.160;2024-03-02T12:50:52;13.40;99.90
5705;DHT22;2877;48.238;11.160;2024-03-02T12:53:17;13.40;99.90
5705;DHT22;2877;48.238;11.160;2024-03-02T12:55:43;13.40;99.90
5705;DHT22;2877;48.238;11.160;2024-03-02T12:58:20;13.50;99.90
5705;DHT22;2877;48.238;11.160;2024-03-02T13:00:46;13.60;99.90
5705;DHT22;2877;48.238;11.160;2024-03-02T13:03:12;13.80;99.90
5705;DHT22;2877;48.238;11.160;2024-03-02T13:05:39;13.80;99.90
5705;DHT22;2877;48.238;11.160;2024-03-02T13:08:06;13.90;99.90
5705;DHT22;2877;48.238;11.160;2024-03-02T13:10:32;13.90;99.90
5705;DHT22;2877;48.238;11.160;2024-03-02T13:12:58;14.00;99.90
5705;DHT22;2877;48.238;11.160;2024-03-02T13:15:26;14.20;99.90
5705;DHT22;2877;48.238;11.160;2024-03-02T13:17:52;14.20;99.90
5705;DHT22;2877;48.238;11.160;2024-03-02T13:20:18;14.10;99.90
5705;DHT22;2877;48.238;11.160;2024-03-02T13:22:44;13.90;99.90
5705;DHT22;2877;48.238;11.160;2024-03-02T13:25:10;13.90;99.90
5705;DHT22;2877;48.238;11.160;2024-03-02T13:27:36;13.80;99.90
5705;DHT22;2877;48.238;11.160;2024-03-02T13:30:03;13.60;99.90
5705;DHT22;2877;48.238;11.160;2024-03-02T13:32:31;13.70;99.90
5705;DHT22;2877;48.238;11.160;2024-03-02T13:34:56;13.90;99.90
5705;DHT22;2877;48.238;11.160;2024-03-02T13:37:22;13.80;99.90
5705;DHT22;2877;48.238;11.160;2024-03-02T13:39:48;13.50;99.90
5705;DHT22;2877;48.238;11.160;2024-03-02T13:42:14;13.30;99.90
5705;DHT22;2877;48.238;11.160;2024-03-02T13:44:41;13.00;99.90
5705;DHT22;2877;48.238;11.160;2024-03-02T13:47:08;12.80;99.90
5705;DHT22;2877;48.238;11.160;2024-03-02T13:49:34;12.70;99.90
5705;DHT22;2877;48.238;11.160;2024-03-02T13:52:04;12.60;99.90
5705;DHT22;2877;48.238;11.160;2024-03-02T13:54:42;12.50;99.90
5705;DHT22;2877;48.238;11.160;2024-03-02T13:57:09;12.40;99.90
5705;DHT22;2877;48.238;11.160;2024-03-02T13:59:35;12.40;99.90
5705;DHT22;2877;48.238;11.160;2024-03-02T14:02:01;12.40;99.90
5705;DHT22;2877;48.238;11.160;2024-03-02T14:04:30;12.30;99.90
5705;DHT22;2877;48.238;11.160;2024-03-02T14:06:56;12.30;99.90
5705;DHT22;2877;48.238;11.160;2024-03-02T14:09:22;12.20;99.90
5705;DHT22;2877;48.238;11.160;2024-03-02T14:11:50;12.20;99.90
5705;DHT22;2877;48.238;11.160;2024-03-02T14:14:15;12.10;99.90
5705;DHT22;2877;48.238;11.160;2024-03-02T14:16:41;12.20;99.90
5705;DHT22;2877;48.238;11.160;2024-03-02T14:19:06;12.10;99.90
5705;DHT22;2877;48.238;11.160;2024-03-02T14:21:32;12.10;99.90
5705;DHT22;2877;48.238;11.160;2024-03-02T14:23:57;12.10;99.90
5705;DHT22;2877;48.238;11.160;2024-03-02T14:26:23;12.10;99.90
5705;DHT22;2877;48.238;11.160;2024-03-02T14:28:48;12.10;99.90
5705;DHT22;2877;48.238;11.160;2024-03-02T14:31:14;12.00;99.90
5705;DHT22;2877;48.238;11.160;2024-03-02T14:33:39;12.00;99.90
5705;DHT22;2877;48.238;11.160;2024-03-02T14:36:05;12.00;99.90
5705;DHT22;2877;48.238;11.160;2024-03-02T14:38:31;11.90;99.90
5705;DHT22;2877;48.238;11.160;2024-03-02T14:40:57;11.90;99.90
5705;DHT22;2877;48.238;11.160;2024-03-02T14:43:23;11.90;99.90
5705;DHT22;2877;48.238;11.160;2024-03-02T14:45:49;11.90;99.90
5705;DHT22;2877;48.238;11.160;2024-03-02T14:48:14;11.90;99.90
5705;DHT22;2877;48.238;11.160;2024-03-02T14:50:40;11.90;99.90
5705;DHT22;2877;48.238;11.160;2024-03-02T14:53:06;11.90;99.90
5705;DHT22;2877;48.238;11.160;2024-03-02T14:55:33;11.80;99.90
5705;DHT22;2877;48.238;11.160;2024-03-02T14:57:59;11.80;99.90
5705;DHT22;2877;48.238;11.160;2024-03-02T15:00:25;11.80;99.90
5705;DHT22;2877;48.238;11.160;2024-03-02T15:02:51;11.80;99.90
5705;DHT22;2877;48.238;11.160;2024-03-02T15:05:16;11.80;99.90
5705;DHT22;2877;48.238;11.160;2024-03-02T15:07:43;11.70;99.90
5705;DHT22;2877;48.238;11.160;2024-03-02T15:10:08;11.70;99.90
5705;DHT22;2877;48.238;11.160;2024-03-02T15:12:34;11.60;99.90
5705;DHT22;2877;48.238;11.160;2024-03-02T15:15:00;11.70;99.90
5705;DHT22;2877;48.238;11.160;2024-03-02T15:17:26;11.60;99.90
5705;DHT22;2877;48.238;11.160;2024-03-02T15:19:51;11.50;99.90
5705;DHT22;2877;48.238;11.160;2024-03-02T15:22:17;11.50;99.90
5705;DHT22;2877;48.238;11.160;2024-03-02T15:24:42;11.50;99.90
5705;DHT22;2877;48.238;11.160;2024-03-02T15:27:08;11.50;99.90
5705;DHT22;2877;48.238;11.160;2024-03-02T15:29:34;11.50;99.90
5705;DHT22;2877;48.238;11.160;2024-03-02T15:32:00;11.50;99.90
5705;DHT22;2877;48.238;11.160;2024-03-02T15:34:26;11.40;99.90
5705;DHT22;2877;48.238;11.160;2024-03-02T15:36:52;11.40;99.90
5705;DHT22;2877;48.238;11.160;2024-03-02T15:39:18;11.40;99.90
5705;DHT22;2877;48.238;11.160;2024-03-02T15:41:44;11.30;99.90
5705;DHT22;2877;48.238;11.160;2024-03-02T15:44:10;11.30;99.90
5705;DHT22;2877;48.238;11.160;2024-03-02T15:46:35;11.20;99.90
5705;DHT22;2877;48.238;11.160;2024-03-02T15:49:01;11.20;99.90
5705;DHT22;2877;48.238;11.160;2024-03-02T15:51:27;11.20;99.90
5705;DHT22;2877;48.238;11.160;2024-03-02T15:53:52;11.10;99.90
5705;DHT22;2877;48.238;11.160;2024-03-02T15:56:18;11.10;99.90
5705;DHT22;2877;48.238;11.160;2024-03-02T15:58:44;11.00;99.90
5705;DHT22;2877;48.238;11.160;2024-03-02T16:01:11;10.90;99.90